^^
Saratoga-Weather Station Historical Data
Daily Summary for July 12, 2021 Units:  Both    English   Metric
Daily Weekly Monthly Yearly Custom
  High: Low: Average:
Temperature: 69.3 °F /  20.7 °C 57.4 °F /  14.1 °C 63.9 °F /  17.7 °C
Dew Point: 65.3 °F /  18.5 °C 55.6 °F /  13.1 °C 60.3 °F /  15.7 °C
Humidity: 94% 77% 88%
Wind Speed: 6mph /  9.7km/h - 0.5mph /  0.8km/h
Wind Gust: 7mph /  11.3km/h - -
Wind- - SSW
Pressure: 29.9 in /  1013.2 hPa 29.8 in /  1007.8 hPa -
Precipitation: 0.03 in /  0.8 mm    
Historical Graphs
 
 
Tabular Data for July 12, 2021
Time Temperature Dew Point Pressure Wind Wind Speed Wind Gust Humidity Rainfall Rate (Hourly) solar
00:01 61 °F /  16.1 °C 58.1 °F /  14.5 °C 29.9in /  1013.2hPa Calm     90% 0in /  0.0mm 0 W/m2
00:06 60.6 °F /  15.9 °C 57.7 °F /  14.3 °C 29.9in /  1013.2hPa Calm     90% 0in /  0.0mm 0 W/m2
00:11 60.6 °F /  15.9 °C 57.7 °F /  14.3 °C 29.9in /  1013.2hPa Calm     90% 0in /  0.0mm 0 W/m2
00:16 60.4 °F /  15.8 °C 57.6 °F /  14.2 °C 29.9in /  1013.2hPa Calm     90% 0in /  0.0mm 0 W/m2
00:21 60.4 °F /  15.8 °C 57.7 °F /  14.3 °C 29.9in /  1013.2hPa Calm     91% 0in /  0.0mm 0 W/m2
00:26 60.3 °F /  15.7 °C 57.6 °F /  14.2 °C 29.9in /  1013.2hPa Calm     91% 0in /  0.0mm 0 W/m2
00:31 60.3 °F /  15.7 °C 57.6 °F /  14.2 °C 29.9in /  1012.9hPa Calm     91% 0in /  0.0mm 0 W/m2
00:36 60.3 °F /  15.7 °C 57.9 °F /  14.4 °C 29.9in /  1012.9hPa Calm     92% 0in /  0.0mm 0 W/m2
00:41 60.1 °F /  15.6 °C 57.7 °F /  14.3 °C 29.9in /  1012.9hPa Calm     92% 0in /  0.0mm 0 W/m2
00:46 60.1 °F /  15.6 °C 57.4 °F /  14.1 °C 29.9in /  1012.9hPa Calm     91% 0in /  0.0mm 0 W/m2
00:51 59.9 °F /  15.5 °C 57.6 °F /  14.2 °C 29.9in /  1012.9hPa Calm     92% 0in /  0.0mm 0 W/m2
00:56 59.7 °F /  15.4 °C 57.4 °F /  14.1 °C 29.9in /  1012.9hPa Calm     92% 0in /  0.0mm 0 W/m2
01:01 59.7 °F /  15.4 °C 57.4 °F /  14.1 °C 29.9in /  1012.9hPa Calm     92% 0in /  0.0mm 0 W/m2
01:06 59.5 °F /  15.3 °C 57.2 °F /  14 °C 29.9in /  1012.9hPa Calm     92% 0in /  0.0mm 0 W/m2
01:11 59.5 °F /  15.3 °C 57.2 °F /  14 °C 29.9in /  1012.9hPa Calm     92% 0in /  0.0mm 0 W/m2
01:16 59.4 °F /  15.2 °C 57 °F /  13.9 °C 29.9in /  1012.9hPa Calm     92% 0in /  0.0mm 0 W/m2
01:21 59.4 °F /  15.2 °C 57 °F /  13.9 °C 29.9in /  1012.9hPa Calm     92% 0in /  0.0mm 0 W/m2
01:26 59.4 °F /  15.2 °C 57.4 °F /  14.1 °C 29.9in /  1012.5hPa Calm     93% 0in /  0.0mm 0 W/m2
01:31 59.4 °F /  15.2 °C 57.4 °F /  14.1 °C 29.9in /  1012.5hPa SW 0.9mph /  1.4km/h 1mph /  1.6km/h 93% 0in /  0.0mm 0 W/m2
01:36 59.4 °F /  15.2 °C 57.4 °F /  14.1 °C 29.9in /  1012.5hPa SW 0.9mph /  1.4km/h 1mph /  1.6km/h 93% 0in /  0.0mm 0 W/m2
01:41 59.4 °F /  15.2 °C 57.4 °F /  14.1 °C 29.9in /  1012.5hPa Calm     93% 0in /  0.0mm 0 W/m2
01:46 59.4 °F /  15.2 °C 57.4 °F /  14.1 °C 29.9in /  1012.5hPa Calm     93% 0in /  0.0mm 0 W/m2
01:51 59.4 °F /  15.2 °C 57.4 °F /  14.1 °C 29.9in /  1012.5hPa Calm     93% 0in /  0.0mm 0 W/m2
01:56 59.4 °F /  15.2 °C 57.4 °F /  14.1 °C 29.9in /  1012.5hPa Calm     93% 0in /  0.0mm 0 W/m2
02:01 59.4 °F /  15.2 °C 57.4 °F /  14.1 °C 29.9in /  1012.9hPa Calm     93% 0in /  0.0mm 0 W/m2
02:06 59.4 °F /  15.2 °C 57.4 °F /  14.1 °C 29.9in /  1012.5hPa Calm     93% 0in /  0.0mm 0 W/m2
02:11 59.4 °F /  15.2 °C 57.4 °F /  14.1 °C 29.9in /  1012.5hPa Calm     93% 0in /  0.0mm 0 W/m2
02:16 59.4 °F /  15.2 °C 57.4 °F /  14.1 °C 29.9in /  1012.5hPa Calm     93% 0in /  0.0mm 0 W/m2
02:21 59.2 °F /  15.1 °C 57.2 °F /  14 °C 29.9in /  1012.5hPa Calm     93% 0in /  0.0mm 0 W/m2
02:26 59.2 °F /  15.1 °C 57.2 °F /  14 °C 29.9in /  1012.5hPa Calm     93% 0in /  0.0mm 0 W/m2
02:31 59.2 °F /  15.1 °C 57.2 °F /  14 °C 29.9in /  1012.5hPa Calm     93% 0in /  0.0mm 0 W/m2
02:36 59 °F /  15 °C 57 °F /  13.9 °C 29.9in /  1012.2hPa Calm   1mph /  1.6km/h 93% 0in /  0.0mm 0 W/m2
02:41 59 °F /  15 °C 57 °F /  13.9 °C 29.9in /  1012.2hPa SW 0.9mph /  1.4km/h 1mph /  1.6km/h 93% 0in /  0.0mm 0 W/m2
02:46 59 °F /  15 °C 57 °F /  13.9 °C 29.9in /  1012.2hPa Calm     93% 0in /  0.0mm 0 W/m2
02:51 58.8 °F /  14.9 °C 56.8 °F /  13.8 °C 29.9in /  1012.2hPa Calm     93% 0in /  0.0mm 0 W/m2
02:56 58.8 °F /  14.9 °C 56.8 °F /  13.8 °C 29.9in /  1012.2hPa Calm     93% 0in /  0.0mm 0 W/m2
03:01 58.6 °F /  14.8 °C 56.7 °F /  13.7 °C 29.9in /  1012.2hPa Calm     93% 0in /  0.0mm 0 W/m2
03:06 58.6 °F /  14.8 °C 56.7 °F /  13.7 °C 29.9in /  1012.2hPa Calm     93% 0in /  0.0mm 0 W/m2
03:11 58.6 °F /  14.8 °C 56.7 °F /  13.7 °C 29.9in /  1012.2hPa Calm     93% 0in /  0.0mm 0 W/m2
03:16 58.6 °F /  14.8 °C 56.7 °F /  13.7 °C 29.9in /  1011.9hPa Calm     93% 0in /  0.0mm 0 W/m2
03:21 58.6 °F /  14.8 °C 56.7 °F /  13.7 °C 29.9in /  1011.9hPa Calm     93% 0in /  0.0mm 0 W/m2
03:26 58.5 °F /  14.7 °C 56.5 °F /  13.6 °C 29.9in /  1011.9hPa Calm     93% 0in /  0.0mm 0 W/m2
03:31 58.5 °F /  14.7 °C 56.5 °F /  13.6 °C 29.9in /  1011.9hPa Calm     93% 0in /  0.0mm 0 W/m2
03:36 58.5 °F /  14.7 °C 56.5 °F /  13.6 °C 29.9in /  1012.2hPa Calm     93% 0in /  0.0mm 0 W/m2
03:42 58.5 °F /  14.7 °C 56.5 °F /  13.6 °C 29.9in /  1012.2hPa Calm     93% 0in /  0.0mm 0 W/m2
03:47 58.3 °F /  14.6 °C 56.3 °F /  13.5 °C 29.9in /  1012.2hPa Calm     93% 0in /  0.0mm 0 W/m2
03:52 58.3 °F /  14.6 °C 56.3 °F /  13.5 °C 29.9in /  1011.9hPa Calm     93% 0in /  0.0mm 0 W/m2
03:57 58.3 °F /  14.6 °C 56.3 °F /  13.5 °C 29.9in /  1011.9hPa Calm     93% 0in /  0.0mm 0 W/m2
04:02 58.1 °F /  14.5 °C 56.1 °F /  13.4 °C 29.9in /  1011.9hPa Calm     93% 0in /  0.0mm 0 W/m2
04:07 57.9 °F /  14.4 °C 55.9 °F /  13.3 °C 29.9in /  1011.9hPa Calm     93% 0in /  0.0mm 0 W/m2
04:12 57.9 °F /  14.4 °C 55.9 °F /  13.3 °C 29.9in /  1011.9hPa Calm     93% 0in /  0.0mm 0 W/m2
04:17 57.9 °F /  14.4 °C 55.9 °F /  13.3 °C 29.9in /  1011.9hPa Calm     93% 0in /  0.0mm 0 W/m2
04:22 57.7 °F /  14.3 °C 55.8 °F /  13.2 °C 29.9in /  1011.9hPa Calm     93% 0in /  0.0mm 0 W/m2
04:27 57.7 °F /  14.3 °C 55.8 °F /  13.2 °C 29.9in /  1011.5hPa SW 1mph /  1.6km/h 1mph /  1.6km/h 93% 0in /  0.0mm 0 W/m2
04:32 57.7 °F /  14.3 °C 55.9 °F /  13.3 °C 29.9in /  1011.5hPa Calm     94% 0in /  0.0mm 0 W/m2
04:37 57.7 °F /  14.3 °C 55.9 °F /  13.3 °C 29.9in /  1011.5hPa Calm     94% 0in /  0.0mm 0 W/m2
04:42 57.7 °F /  14.3 °C 55.9 °F /  13.3 °C 29.9in /  1011.5hPa Calm     94% 0in /  0.0mm 0 W/m2
04:47 57.7 °F /  14.3 °C 55.9 °F /  13.3 °C 29.9in /  1011.5hPa Calm     94% 0in /  0.0mm 0 W/m2
04:52 57.6 °F /  14.2 °C 55.8 °F /  13.2 °C 29.9in /  1011.5hPa Calm   1mph /  1.6km/h 94% 0in /  0.0mm 0 W/m2
04:57 57.6 °F /  14.2 °C 55.8 °F /  13.2 °C 29.9in /  1011.2hPa Calm     94% 0in /  0.0mm 0 W/m2
05:02 57.6 °F /  14.2 °C 55.8 °F /  13.2 °C 29.9in /  1011.2hPa Calm     94% 0in /  0.0mm 0 W/m2
05:07 57.6 °F /  14.2 °C 55.8 °F /  13.2 °C 29.9in /  1011.2hPa Calm     94% 0in /  0.0mm 0 W/m2
05:12 57.6 °F /  14.2 °C 55.8 °F /  13.2 °C 29.9in /  1011.2hPa Calm     94% 0in /  0.0mm 0 W/m2
05:17 57.4 °F /  14.1 °C 55.6 °F /  13.1 °C 29.9in /  1010.8hPa Calm     94% 0in /  0.0mm 0 W/m2
05:22 57.4 °F /  14.1 °C 55.6 °F /  13.1 °C 29.9in /  1010.8hPa Calm     94% 0in /  0.0mm 0 W/m2
05:27 57.4 °F /  14.1 °C 55.6 °F /  13.1 °C 29.9in /  1010.8hPa Calm     94% 0in /  0.0mm 0 W/m2
05:32 57.4 °F /  14.1 °C 55.6 °F /  13.1 °C 29.9in /  1010.8hPa SSW 2mph /  3.2km/h 3mph /  4.8km/h 94% 0in /  0.0mm 0 W/m2
05:37 57.6 °F /  14.2 °C 55.8 °F /  13.2 °C 29.9in /  1010.8hPa SW 0.9mph /  1.4km/h 1mph /  1.6km/h 94% 0in /  0.0mm 0 W/m2
05:42 57.6 °F /  14.2 °C 55.8 °F /  13.2 °C 29.9in /  1010.8hPa SW 0.9mph /  1.4km/h 3mph /  4.8km/h 94% 0in /  0.0mm 0 W/m2
05:47 57.6 °F /  14.2 °C 55.8 °F /  13.2 °C 29.8in /  1010.5hPa Calm   1mph /  1.6km/h 94% 0in /  0.0mm 0 W/m2
05:52 57.6 °F /  14.2 °C 55.8 °F /  13.2 °C 29.8in /  1010.5hPa Calm     94% 0in /  0.0mm 7 W/m2
05:57 57.6 °F /  14.2 °C 55.8 °F /  13.2 °C 29.9in /  1010.8hPa Calm     94% 0in /  0.0mm 9 W/m2
06:02 57.6 °F /  14.2 °C 55.8 °F /  13.2 °C 29.9in /  1010.8hPa Calm     94% 0in /  0.0mm 12 W/m2
06:07 57.4 °F /  14.1 °C 55.6 °F /  13.1 °C 29.9in /  1010.8hPa Calm     94% 0in /  0.0mm 16 W/m2
06:12 57.6 °F /  14.2 °C 55.8 °F /  13.2 °C 29.9in /  1010.8hPa Calm     94% 0in /  0.0mm 18 W/m2
06:17 57.6 °F /  14.2 °C 55.8 °F /  13.2 °C 29.9in /  1010.8hPa SW 0.9mph /  1.4km/h 2mph /  3.2km/h 94% 0in /  0.0mm 21 W/m2
06:22 57.6 °F /  14.2 °C 55.8 °F /  13.2 °C 29.9in /  1010.8hPa Calm   1mph /  1.6km/h 94% 0in /  0.0mm 25 W/m2
06:27 57.7 °F /  14.3 °C 55.9 °F /  13.3 °C 29.9in /  1010.8hPa SW 2mph /  3.2km/h 2mph /  3.2km/h 94% 0in /  0.0mm 28 W/m2
06:32 57.7 °F /  14.3 °C 55.9 °F /  13.3 °C 29.9in /  1010.8hPa Calm   1mph /  1.6km/h 94% 0in /  0.0mm 33 W/m2
06:37 57.9 °F /  14.4 °C 56.1 °F /  13.4 °C 29.9in /  1010.8hPa Calm     94% 0in /  0.0mm 37 W/m2
06:42 57.9 °F /  14.4 °C 56.1 °F /  13.4 °C 29.9in /  1010.8hPa Calm     94% 0in /  0.0mm 44 W/m2
06:47 58.3 °F /  14.6 °C 56.5 °F /  13.6 °C 29.9in /  1010.8hPa Calm     94% 0in /  0.0mm 49 W/m2
06:52 58.3 °F /  14.6 °C 56.5 °F /  13.6 °C 29.9in /  1010.8hPa Calm     94% 0in /  0.0mm 51 W/m2
06:57 58.5 °F /  14.7 °C 56.7 °F /  13.7 °C 29.9in /  1010.8hPa ESE 0.9mph /  1.4km/h 3mph /  4.8km/h 94% 0in /  0.0mm 49 W/m2
07:02 58.6 °F /  14.8 °C 56.8 °F /  13.8 °C 29.9in /  1010.8hPa Calm     94% 0in /  0.0mm 46 W/m2
07:07 59 °F /  15 °C 57 °F /  13.9 °C 29.8in /  1010.5hPa ESE 0.9mph /  1.4km/h 3mph /  4.8km/h 93% 0in /  0.0mm 40 W/m2
07:12 59.4 °F /  15.2 °C 57.4 °F /  14.1 °C 29.8in /  1010.2hPa ESE 0.9mph /  1.4km/h 1mph /  1.6km/h 93% 0in /  0.0mm 39 W/m2
07:17 59.5 °F /  15.3 °C 57.2 °F /  14 °C 29.8in /  1010.5hPa Calm   2mph /  3.2km/h 92% 0in /  0.0mm 40 W/m2
07:22 59.5 °F /  15.3 °C 57.2 °F /  14 °C 29.8in /  1010.5hPa Calm     92% 0in /  0.0mm 39 W/m2
07:27 59.7 °F /  15.4 °C 57 °F /  13.9 °C 29.8in /  1010.2hPa Calm     91% 0in /  0.0mm 42 W/m2
07:32 59.7 °F /  15.4 °C 57 °F /  13.9 °C 29.8in /  1010.2hPa Calm     91% 0in /  0.0mm 49 W/m2
07:37 59.7 °F /  15.4 °C 57 °F /  13.9 °C 29.8in /  1010.2hPa Calm     91% 0in /  0.0mm 58 W/m2
07:42 59.9 °F /  15.5 °C 57 °F /  13.9 °C 29.8in /  1010.2hPa Calm     90% 0in /  0.0mm 65 W/m2
07:47 60.1 °F /  15.6 °C 57.2 °F /  14 °C 29.8in /  1010.2hPa Calm     90% 0in /  0.0mm 67 W/m2
07:52 60.3 °F /  15.7 °C 57.4 °F /  14.1 °C 29.8in /  1010.2hPa Calm   1mph /  1.6km/h 90% 0in /  0.0mm 60 W/m2
07:57 60.3 °F /  15.7 °C 57.4 °F /  14.1 °C 29.8in /  1010.2hPa Calm     90% 0in /  0.0mm 72 W/m2
08:03 60.4 °F /  15.8 °C 57.6 °F /  14.2 °C 29.8in /  1010.2hPa Calm     90% 0in /  0.0mm 93 W/m2
08:08 60.6 °F /  15.9 °C 57.7 °F /  14.3 °C 29.8in /  1010.2hPa Calm     90% 0in /  0.0mm 160 W/m2
08:13 61 °F /  16.1 °C 57.7 °F /  14.3 °C 29.8in /  1010.2hPa Calm     89% 0in /  0.0mm 137 W/m2
08:18 61.5 °F /  16.4 °C 57.9 °F /  14.4 °C 29.8in /  1009.8hPa Calm     88% 0in /  0.0mm 158 W/m2
08:23 62.1 °F /  16.7 °C 58.1 °F /  14.5 °C 29.8in /  1010.2hPa Calm     87% 0in /  0.0mm 146 W/m2
08:28 62.4 °F /  16.9 °C 58.1 °F /  14.5 °C 29.8in /  1010.2hPa Calm     86% 0in /  0.0mm 169 W/m2
08:33 62.6 °F /  17 °C 58.3 °F /  14.6 °C 29.8in /  1010.2hPa South 0.9mph /  1.4km/h 2mph /  3.2km/h 86% 0in /  0.0mm 193 W/m2
08:38 63 °F /  17.2 °C 58.6 °F /  14.8 °C 29.8in /  1009.8hPa ENE 2mph /  3.2km/h 3mph /  4.8km/h 86% 0in /  0.0mm 186 W/m2
08:43 63 °F /  17.2 °C 58.5 °F /  14.7 °C 29.8in /  1009.8hPa Calm   2mph /  3.2km/h 85% 0in /  0.0mm 167 W/m2
08:48 63.1 °F /  17.3 °C 58.3 °F /  14.6 °C 29.8in /  1009.8hPa Calm   3mph /  4.8km/h 84% 0in /  0.0mm 125 W/m2
08:53 63.1 °F /  17.3 °C 58.3 °F /  14.6 °C 29.8in /  1009.5hPa North 0.9mph /  1.4km/h 1mph /  1.6km/h 84% 0in /  0.0mm 120 W/m2
08:58 63.1 °F /  17.3 °C 57.9 °F /  14.4 °C 29.8in /  1009.5hPa NE 2mph /  3.2km/h 3mph /  4.8km/h 83% 0in /  0.0mm 128 W/m2
09:03 63.1 °F /  17.3 °C 57.9 °F /  14.4 °C 29.8in /  1009.5hPa ENE 0.9mph /  1.4km/h 2mph /  3.2km/h 83% 0in /  0.0mm 130 W/m2
09:08 63.1 °F /  17.3 °C 58.3 °F /  14.6 °C 29.8in /  1009.1hPa ENE 0.9mph /  1.4km/h 2mph /  3.2km/h 84% 0in /  0.0mm 167 W/m2
09:13 63.3 °F /  17.4 °C 58.1 °F /  14.5 °C 29.8in /  1009.1hPa East 2mph /  3.2km/h 4mph /  6.4km/h 83% 0in /  0.0mm 186 W/m2
09:18 63.5 °F /  17.5 °C 58.3 °F /  14.6 °C 29.8in /  1009.1hPa SE 2.9mph /  4.7km/h 3mph /  4.8km/h 83% 0in /  0.0mm 148 W/m2
09:23 63.7 °F /  17.6 °C 58.5 °F /  14.7 °C 29.8in /  1009.1hPa ENE 0.9mph /  1.4km/h 4mph /  6.4km/h 83% 0in /  0.0mm 135 W/m2
09:28 63.9 °F /  17.7 °C 58.6 °F /  14.8 °C 29.8in /  1009.1hPa Calm   2mph /  3.2km/h 83% 0in /  0.0mm 134 W/m2
09:33 63.9 °F /  17.7 °C 58.6 °F /  14.8 °C 29.8in /  1009.1hPa NNE 0.9mph /  1.4km/h 2mph /  3.2km/h 83% 0in /  0.0mm 162 W/m2
09:38 63.9 °F /  17.7 °C 58.6 °F /  14.8 °C 29.8in /  1009.1hPa WNW 2mph /  3.2km/h 2mph /  3.2km/h 83% 0in /  0.0mm 186 W/m2
09:43 64 °F /  17.8 °C 58.8 °F /  14.9 °C 29.8in /  1009.1hPa NE 0.9mph /  1.4km/h 2mph /  3.2km/h 83% 0in /  0.0mm 139 W/m2
09:48 64 °F /  17.8 °C 58.8 °F /  14.9 °C 29.8in /  1008.8hPa NE 0.9mph /  1.4km/h 1mph /  1.6km/h 83% 0in /  0.0mm 84 W/m2
09:53 64.2 °F /  17.9 °C 59 °F /  15 °C 29.8in /  1008.5hPa Calm   2mph /  3.2km/h 83% 0in /  0.0mm 70 W/m2
09:58 64.2 °F /  17.9 °C 59 °F /  15 °C 29.8in /  1008.5hPa NNE 0.9mph /  1.4km/h 1mph /  1.6km/h 83% 0in /  0.0mm 60 W/m2
10:03 64.2 °F /  17.9 °C 59.4 °F /  15.2 °C 29.8in /  1008.5hPa Calm   2mph /  3.2km/h 84% 0in /  0.0mm 95 W/m2
10:08 64.2 °F /  17.9 °C 59.4 °F /  15.2 °C 29.8in /  1008.5hPa Calm   1mph /  1.6km/h 84% 0in /  0.0mm 162 W/m2
10:13 64.4 °F /  18 °C 59.7 °F /  15.4 °C 29.8in /  1008.5hPa Calm   2mph /  3.2km/h 85% 0in /  0.0mm 174 W/m2
10:18 64.6 °F /  18.1 °C 59.9 °F /  15.5 °C 29.8in /  1008.5hPa Calm   2mph /  3.2km/h 85% 0in /  0.0mm 158 W/m2
10:23 64.8 °F /  18.2 °C 59.9 °F /  15.5 °C 29.8in /  1008.5hPa Calm   1mph /  1.6km/h 84% 0in /  0.0mm 172 W/m2
10:28 64.9 °F /  18.3 °C 59.9 °F /  15.5 °C 29.8in /  1008.8hPa South 0.9mph /  1.4km/h 2mph /  3.2km/h 84% 0in /  0.0mm 153 W/m2
10:33 65.1 °F /  18.4 °C 60.1 °F /  15.6 °C 29.8in /  1009.1hPa Calm     84% 0in /  0.0mm 139 W/m2
10:38 65.3 °F /  18.5 °C 60.3 °F /  15.7 °C 29.8in /  1009.1hPa Calm   2mph /  3.2km/h 84% 0in /  0.0mm 211 W/m2
10:43 65.7 °F /  18.7 °C 60.4 °F /  15.8 °C 29.8in /  1009.1hPa South 0.9mph /  1.4km/h 1mph /  1.6km/h 83% 0in /  0.0mm 237 W/m2
10:48 65.8 °F /  18.8 °C 60.6 °F /  15.9 °C 29.8in /  1009.1hPa ENE 0.9mph /  1.4km/h 1mph /  1.6km/h 83% 0in /  0.0mm 229 W/m2
10:53 66 °F /  18.9 °C 60.4 °F /  15.8 °C 29.8in /  1009.1hPa NE 0.9mph /  1.4km/h 2mph /  3.2km/h 82% 0in /  0.0mm 218 W/m2
10:58 66.4 °F /  19.1 °C 60.4 °F /  15.8 °C 29.8in /  1009.1hPa ENE 0.9mph /  1.4km/h 2mph /  3.2km/h 81% 0in /  0.0mm 207 W/m2
11:03 66.4 °F /  19.1 °C 60.4 °F /  15.8 °C 29.8in /  1008.8hPa ENE 0.9mph /  1.4km/h 2mph /  3.2km/h 81% 0in /  0.0mm 192 W/m2
11:08 66.6 °F /  19.2 °C 61 °F /  16.1 °C 29.8in /  1008.8hPa North 0.9mph /  1.4km/h 3mph /  4.8km/h 82% 0in /  0.0mm 209 W/m2
11:13 66.6 °F /  19.2 °C 60.6 °F /  15.9 °C 29.8in /  1008.8hPa NE 2mph /  3.2km/h 3mph /  4.8km/h 81% 0in /  0.0mm 186 W/m2
11:18 66.7 °F /  19.3 °C 60.8 °F /  16 °C 29.8in /  1009.1hPa Calm   2mph /  3.2km/h 81% 0in /  0.0mm 104 W/m2
11:23 66.9 °F /  19.4 °C 61 °F /  16.1 °C 29.8in /  1009.1hPa Calm   3mph /  4.8km/h 81% 0in /  0.0mm 98 W/m2
11:28 66.9 °F /  19.4 °C 61.2 °F /  16.2 °C 29.8in /  1009.1hPa Calm     82% 0in /  0.0mm 100 W/m2
11:33 66.9 °F /  19.4 °C 61 °F /  16.1 °C 29.8in /  1009.5hPa Calm     81% 0in /  0.0mm 93 W/m2
11:38 66.9 °F /  19.4 °C 61 °F /  16.1 °C 29.8in /  1009.5hPa Calm     81% 0in /  0.0mm 97 W/m2
11:43 66.9 °F /  19.4 °C 61.2 °F /  16.2 °C 29.8in /  1009.5hPa Calm     82% 0in /  0.0mm 95 W/m2
11:48 67.1 °F /  19.5 °C 61.7 °F /  16.5 °C 29.8in /  1009.5hPa Calm     83% 0in /  0.0mm 113 W/m2
11:53 67.1 °F /  19.5 °C 61.7 °F /  16.5 °C 29.8in /  1009.5hPa Calm     83% 0in /  0.0mm 178 W/m2
11:58 67.3 °F /  19.6 °C 61.5 °F /  16.4 °C 29.8in /  1009.5hPa Calm     82% 0in /  0.0mm 195 W/m2
12:03 67.3 °F /  19.6 °C 61.2 °F /  16.2 °C 29.8in /  1009.5hPa Calm   1mph /  1.6km/h 81% 0in /  0.0mm 178 W/m2
12:08 67.5 °F /  19.7 °C 61.2 °F /  16.2 °C 29.8in /  1009.1hPa Calm   3mph /  4.8km/h 80% 0in /  0.0mm 156 W/m2
12:13 67.6 °F /  19.8 °C 61.2 °F /  16.2 °C 29.8in /  1009.1hPa Calm   1mph /  1.6km/h 80% 0in /  0.0mm 202 W/m2
12:18 67.6 °F /  19.8 °C 61 °F /  16.1 °C 29.8in /  1009.1hPa Calm   2mph /  3.2km/h 79% 0in /  0.0mm 158 W/m2
12:23 67.8 °F /  19.9 °C 61 °F /  16.1 °C 29.8in /  1009.1hPa East 0.9mph /  1.4km/h 2mph /  3.2km/h 79% 0in /  0.0mm 139 W/m2
12:28 67.8 °F /  19.9 °C 61.3 °F /  16.3 °C 29.8in /  1009.1hPa Calm   2mph /  3.2km/h 80% 0in /  0.0mm 113 W/m2
12:33 67.8 °F /  19.9 °C 61.7 °F /  16.5 °C 29.8in /  1009.1hPa Calm   1mph /  1.6km/h 81% 0in /  0.0mm 107 W/m2
12:38 67.6 °F /  19.8 °C 61.5 °F /  16.4 °C 29.8in /  1009.1hPa Calm     81% 0in /  0.0mm 132 W/m2
12:48 67.8 °F /  19.9 °C 61.7 °F /  16.5 °C 29.8in /  1009.1hPa ESE 0.9mph /  1.4km/h 1mph /  1.6km/h 81% 0in /  0.0mm 139 W/m2
12:53 67.6 °F /  19.8 °C 61 °F /  16.1 °C 29.8in /  1008.8hPa ESE 0.9mph /  1.4km/h 2mph /  3.2km/h 79% 0in /  0.0mm 142 W/m2
12:58 67.8 °F /  19.9 °C 61.3 °F /  16.3 °C 29.8in /  1009.1hPa Calm     80% 0in /  0.0mm 125 W/m2
13:03 67.8 °F /  19.9 °C 61 °F /  16.1 °C 29.8in /  1009.1hPa South 0.9mph /  1.4km/h 2mph /  3.2km/h 79% 0in /  0.0mm 130 W/m2
13:08 67.8 °F /  19.9 °C 60.6 °F /  15.9 °C 29.8in /  1009.1hPa NE 2.9mph /  4.7km/h 3mph /  4.8km/h 78% 0in /  0.0mm 137 W/m2
13:13 67.8 °F /  19.9 °C 60.6 °F /  15.9 °C 29.8in /  1009.1hPa NNE 0.9mph /  1.4km/h 2mph /  3.2km/h 78% 0in /  0.0mm 128 W/m2
13:18 68 °F /  20 °C 60.4 °F /  15.8 °C 29.8in /  1009.1hPa ESE 2.9mph /  4.7km/h 4mph /  6.4km/h 77% 0in /  0.0mm 153 W/m2
13:23 68.2 °F /  20.1 °C 61 °F /  16.1 °C 29.8in /  1009.1hPa Calm   1mph /  1.6km/h 78% 0in /  0.0mm 165 W/m2
13:28 68.2 °F /  20.1 °C 60.6 °F /  15.9 °C 29.8in /  1009.1hPa ESE 2mph /  3.2km/h 4mph /  6.4km/h 77% 0in /  0.0mm 125 W/m2
13:33 68.2 °F /  20.1 °C 61 °F /  16.1 °C 29.8in /  1008.8hPa SE 0.9mph /  1.4km/h 1mph /  1.6km/h 78% 0in /  0.0mm 146 W/m2
13:38 68.4 °F /  20.2 °C 61.5 °F /  16.4 °C 29.8in /  1008.8hPa Calm   3mph /  4.8km/h 79% 0in /  0.0mm 153 W/m2
13:43 68.4 °F /  20.2 °C 61.9 °F /  16.6 °C 29.8in /  1008.8hPa WNW 2mph /  3.2km/h 3mph /  4.8km/h 80% 0in /  0.0mm 120 W/m2
13:48 68.2 °F /  20.1 °C 61.7 °F /  16.5 °C 29.8in /  1008.8hPa NW 2mph /  3.2km/h 3mph /  4.8km/h 80% 0in /  0.0mm 109 W/m2
13:54 67.8 °F /  19.9 °C 61.7 °F /  16.5 °C 29.8in /  1008.8hPa NNW 0.9mph /  1.4km/h 6mph /  9.7km/h 81% 0in /  0.0mm 153 W/m2
13:59 67.8 °F /  19.9 °C 62.1 °F /  16.7 °C 29.8in /  1008.8hPa NW 0.9mph /  1.4km/h 3mph /  4.8km/h 82% 0in /  0.0mm 179 W/m2
14:04 67.8 °F /  19.9 °C 62.1 °F /  16.7 °C 29.8in /  1008.8hPa Calm   1mph /  1.6km/h 82% 0in /  0.0mm 134 W/m2
14:09 67.8 °F /  19.9 °C 62.1 °F /  16.7 °C 29.8in /  1008.8hPa ENE 0.9mph /  1.4km/h 3mph /  4.8km/h 82% 0in /  0.0mm 142 W/m2
14:14 68 °F /  20 °C 62.2 °F /  16.8 °C 29.8in /  1008.8hPa Calm   3mph /  4.8km/h 82% 0in /  0.0mm 195 W/m2
14:19 68 °F /  20 °C 62.6 °F /  17 °C 29.8in /  1008.8hPa NW 0.9mph /  1.4km/h 2mph /  3.2km/h 83% 0in /  0.0mm 178 W/m2
14:24 68.2 °F /  20.1 °C 62.8 °F /  17.1 °C 29.8in /  1008.8hPa SE 0.9mph /  1.4km/h 2mph /  3.2km/h 83% 0in /  0.0mm 202 W/m2
14:29 68.2 °F /  20.1 °C 62.8 °F /  17.1 °C 29.8in /  1008.8hPa ESE 2mph /  3.2km/h 4mph /  6.4km/h 83% 0in /  0.0mm 185 W/m2
14:34 68.2 °F /  20.1 °C 62.8 °F /  17.1 °C 29.8in /  1008.8hPa ENE 0.9mph /  1.4km/h 4mph /  6.4km/h 83% 0in /  0.0mm 141 W/m2
14:39 68 °F /  20 °C 63 °F /  17.2 °C 29.8in /  1008.5hPa NW 2.9mph /  4.7km/h 3mph /  4.8km/h 84% 0in /  0.0mm 116 W/m2
14:44 67.6 °F /  19.8 °C 62.2 °F /  16.8 °C 29.8in /  1008.5hPa WNW 2mph /  3.2km/h 2mph /  3.2km/h 83% 0in /  0.0mm 105 W/m2
14:49 67.5 °F /  19.7 °C 62.4 °F /  16.9 °C 29.8in /  1008.5hPa Calm   2mph /  3.2km/h 84% 0in /  0.0mm 128 W/m2
14:54 67.5 °F /  19.7 °C 62.8 °F /  17.1 °C 29.8in /  1008.5hPa NNW 0.9mph /  1.4km/h 3mph /  4.8km/h 85% 0in /  0.0mm 179 W/m2
14:59 67.3 °F /  19.6 °C 62.6 °F /  17 °C 29.8in /  1008.5hPa WNW 0.9mph /  1.4km/h 2mph /  3.2km/h 85% 0in /  0.0mm 120 W/m2
15:04 67.3 °F /  19.6 °C 62.6 °F /  17 °C 29.8in /  1008.8hPa NNW 0.9mph /  1.4km/h 3mph /  4.8km/h 85% 0in /  0.0mm 88 W/m2
15:09 67.1 °F /  19.5 °C 62.1 °F /  16.7 °C 29.8in /  1008.8hPa NNW 0.9mph /  1.4km/h 2mph /  3.2km/h 84% 0in /  0.0mm 111 W/m2
15:14 67.3 °F /  19.6 °C 62.6 °F /  17 °C 29.8in /  1008.8hPa WSW 0.9mph /  1.4km/h 3mph /  4.8km/h 85% 0in /  0.0mm 135 W/m2
15:19 67.3 °F /  19.6 °C 63 °F /  17.2 °C 29.8in /  1008.5hPa Calm   1mph /  1.6km/h 86% 0in /  0.0mm 158 W/m2
15:24 67.5 °F /  19.7 °C 63.5 °F /  17.5 °C 29.8in /  1008.5hPa WSW 2mph /  3.2km/h 2mph /  3.2km/h 87% 0in /  0.0mm 221 W/m2
15:29 67.5 °F /  19.7 °C 63.1 °F /  17.3 °C 29.8in /  1008.5hPa WNW 0.9mph /  1.4km/h 2mph /  3.2km/h 86% 0in /  0.0mm 236 W/m2
15:34 67.5 °F /  19.7 °C 63.1 °F /  17.3 °C 29.8in /  1008.5hPa North 0.9mph /  1.4km/h 3mph /  4.8km/h 86% 0in /  0.0mm 192 W/m2
15:39 67.6 °F /  19.8 °C 63 °F /  17.2 °C 29.8in /  1008.5hPa Calm     85% 0in /  0.0mm 153 W/m2
15:44 67.8 °F /  19.9 °C 63.1 °F /  17.3 °C 29.8in /  1008.5hPa East 2mph /  3.2km/h 2mph /  3.2km/h 85% 0in /  0.0mm 188 W/m2
15:49 68 °F /  20 °C 63.3 °F /  17.4 °C 29.8in /  1008.5hPa West 0.9mph /  1.4km/h 3mph /  4.8km/h 85% 0in /  0.0mm 188 W/m2
15:54 68.2 °F /  20.1 °C 63.1 °F /  17.3 °C 29.8in /  1008.8hPa ENE 0.9mph /  1.4km/h 2mph /  3.2km/h 84% 0in /  0.0mm 79 W/m2
16:04 68 °F /  20 °C 62.6 °F /  17 °C 29.8in /  1008.5hPa Calm   2mph /  3.2km/h 83% 0in /  0.0mm 65 W/m2
16:09 67.8 °F /  19.9 °C 62.8 °F /  17.1 °C 29.8in /  1008.8hPa Calm   1mph /  1.6km/h 84% 0in /  0.0mm 79 W/m2
16:14 67.8 °F /  19.9 °C 63.5 °F /  17.5 °C 29.8in /  1008.5hPa South 0.9mph /  1.4km/h 1mph /  1.6km/h 86% 0.02in /  0.5mm 158 W/m2
16:19 67.6 °F /  19.8 °C 63.3 °F /  17.4 °C 29.8in /  1008.5hPa Calm     86% 0.02in /  0.5mm 125 W/m2
16:24 67.6 °F /  19.8 °C 63.7 °F /  17.6 °C 29.8in /  1008.5hPa Calm     87% 0.02in /  0.5mm 81 W/m2
16:29 67.5 °F /  19.7 °C 63.9 °F /  17.7 °C 29.8in /  1008.5hPa Calm     88% 0.02in /  0.5mm 74 W/m2
16:34 67.3 °F /  19.6 °C 63.9 °F /  17.7 °C 29.8in /  1008.5hPa South 0.9mph /  1.4km/h 2mph /  3.2km/h 89% 0.03in /  0.8mm 60 W/m2
16:39 67.3 °F /  19.6 °C 64.2 °F /  17.9 °C 29.8in /  1008.5hPa Calm     90% 0.03in /  0.8mm 72 W/m2
16:44 67.1 °F /  19.5 °C 64 °F /  17.8 °C 29.8in /  1008.5hPa Calm   2mph /  3.2km/h 90% 0.03in /  0.8mm 90 W/m2
16:49 66.9 °F /  19.4 °C 63.9 °F /  17.7 °C 29.8in /  1008.5hPa South 0.9mph /  1.4km/h 2mph /  3.2km/h 90% 0.03in /  0.8mm 155 W/m2
16:54 66.9 °F /  19.4 °C 64.2 °F /  17.9 °C 29.8in /  1008.5hPa Calm     91% 0.03in /  0.8mm 169 W/m2
16:59 66.9 °F /  19.4 °C 64.2 °F /  17.9 °C 29.8in /  1008.5hPa Calm   2mph /  3.2km/h 91% 0.03in /  0.8mm 186 W/m2
17:04 66.9 °F /  19.4 °C 64.2 °F /  17.9 °C 29.8in /  1008.5hPa SSW 0.9mph /  1.4km/h 2mph /  3.2km/h 91% 0.03in /  0.8mm 113 W/m2
17:09 66.7 °F /  19.3 °C 63.7 °F /  17.6 °C 29.8in /  1008.5hPa Calm   1mph /  1.6km/h 90% 0.03in /  0.8mm 116 W/m2
17:14 67.1 °F /  19.5 °C 64.4 °F /  18 °C 29.8in /  1008.5hPa Calm   1mph /  1.6km/h 91% 0.02in /  0.5mm 146 W/m2
17:19 67.3 °F /  19.6 °C 64.6 °F /  18.1 °C 29.8in /  1008.5hPa Calm     91% 0.01in /  0.2mm 148 W/m2
17:24 67.1 °F /  19.5 °C 64 °F /  17.8 °C 29.8in /  1008.5hPa Calm     90% 0.01in /  0.2mm 151 W/m2
17:29 67.5 °F /  19.7 °C 64.4 °F /  18 °C 29.8in /  1008.5hPa SW 0.9mph /  1.4km/h 2mph /  3.2km/h 90% 0.01in /  0.2mm 192 W/m2
17:34 67.5 °F /  19.7 °C 64.4 °F /  18 °C 29.8in /  1008.5hPa WSW 0.9mph /  1.4km/h 2mph /  3.2km/h 90% 0in /  0.0mm 202 W/m2
17:39 67.6 °F /  19.8 °C 64.6 °F /  18.1 °C 29.8in /  1008.5hPa WSW 0.9mph /  1.4km/h 2mph /  3.2km/h 90% 0in /  0.0mm 176 W/m2
17:44 67.6 °F /  19.8 °C 64.2 °F /  17.9 °C 29.8in /  1008.5hPa Calm   1mph /  1.6km/h 89% 0in /  0.0mm 144 W/m2
17:49 67.6 °F /  19.8 °C 64.2 °F /  17.9 °C 29.8in /  1008.1hPa Calm     89% 0in /  0.0mm 202 W/m2
17:54 68 °F /  20 °C 64.6 °F /  18.1 °C 29.8in /  1008.5hPa Calm     89% 0in /  0.0mm 283 W/m2
17:59 68.4 °F /  20.2 °C 64.6 °F /  18.1 °C 29.8in /  1008.1hPa Calm     88% 0in /  0.0mm 424 W/m2
18:04 68.9 °F /  20.5 °C 64.6 °F /  18.1 °C 29.8in /  1008.5hPa NW 0.9mph /  1.4km/h 2mph /  3.2km/h 86% 0in /  0.0mm 251 W/m2
18:09 69.1 °F /  20.6 °C 64.8 °F /  18.2 °C 29.8in /  1008.5hPa Calm     86% 0in /  0.0mm 211 W/m2
18:14 69.3 °F /  20.7 °C 64.6 °F /  18.1 °C 29.8in /  1008.5hPa Calm   2mph /  3.2km/h 85% 0in /  0.0mm 118 W/m2
18:19 69.3 °F /  20.7 °C 64.6 °F /  18.1 °C 29.8in /  1008.1hPa WNW 0.9mph /  1.4km/h 2mph /  3.2km/h 85% 0in /  0.0mm 130 W/m2
18:24 69.1 °F /  20.6 °C 64.8 °F /  18.2 °C 29.8in /  1008.1hPa Calm     86% 0in /  0.0mm 144 W/m2
18:29 69.3 °F /  20.7 °C 65.3 °F /  18.5 °C 29.8in /  1007.8hPa Calm   2mph /  3.2km/h 87% 0in /  0.0mm 137 W/m2
18:34 69.3 °F /  20.7 °C 65.3 °F /  18.5 °C 29.8in /  1008.1hPa Calm     87% 0in /  0.0mm 162 W/m2
18:39 69.1 °F /  20.6 °C 65.1 °F /  18.4 °C 29.8in /  1008.1hPa WNW 0.9mph /  1.4km/h 2mph /  3.2km/h 87% 0in /  0.0mm 171 W/m2
18:44 68.7 °F /  20.4 °C 64.8 °F /  18.2 °C 29.8in /  1008.1hPa WNW 0.9mph /  1.4km/h 2mph /  3.2km/h 87% 0in /  0.0mm 163 W/m2
18:49 68.7 °F /  20.4 °C 64.9 °F /  18.3 °C 29.8in /  1008.1hPa Calm     88% 0in /  0.0mm 151 W/m2
18:54 68.5 °F /  20.3 °C 64.2 °F /  17.9 °C 29.8in /  1007.8hPa WNW 0.9mph /  1.4km/h 1mph /  1.6km/h 86% 0in /  0.0mm 195 W/m2
18:59 68.5 °F /  20.3 °C 63.9 °F /  17.7 °C 29.8in /  1007.8hPa Calm     85% 0in /  0.0mm 186 W/m2
19:04 68.9 °F /  20.5 °C 64.9 °F /  18.3 °C 29.8in /  1007.8hPa Calm     87% 0in /  0.0mm 169 W/m2
19:09 68.9 °F /  20.5 °C 64.2 °F /  17.9 °C 29.8in /  1007.8hPa WNW 0.9mph /  1.4km/h 2mph /  3.2km/h 85% 0in /  0.0mm 155 W/m2
19:14 68.9 °F /  20.5 °C 64.6 °F /  18.1 °C 29.8in /  1007.8hPa WNW 2mph /  3.2km/h 2mph /  3.2km/h 86% 0in /  0.0mm 132 W/m2
19:19 68.7 °F /  20.4 °C 64 °F /  17.8 °C 29.8in /  1007.8hPa Calm   2mph /  3.2km/h 85% 0in /  0.0mm 137 W/m2
19:24 68.7 °F /  20.4 °C 64.4 °F /  18 °C 29.8in /  1007.8hPa Calm     86% 0in /  0.0mm 149 W/m2
19:29 68.7 °F /  20.4 °C 64.4 °F /  18 °C 29.8in /  1008.1hPa WNW 2mph /  3.2km/h 2mph /  3.2km/h 86% 0in /  0.0mm 107 W/m2
19:34 68.5 °F /  20.3 °C 63.9 °F /  17.7 °C 29.8in /  1008.1hPa Calm   1mph /  1.6km/h 85% 0in /  0.0mm 88 W/m2
19:39 68.5 °F /  20.3 °C 64.2 °F /  17.9 °C 29.8in /  1008.1hPa WNW 2mph /  3.2km/h 2mph /  3.2km/h 86% 0in /  0.0mm 72 W/m2
19:44 68.4 °F /  20.2 °C 63.7 °F /  17.6 °C 29.8in /  1007.8hPa Calm   3mph /  4.8km/h 85% 0in /  0.0mm 62 W/m2
19:49 68.4 °F /  20.2 °C 64 °F /  17.8 °C 29.8in /  1008.1hPa Calm   1mph /  1.6km/h 86% 0in /  0.0mm 65 W/m2
19:54 68.2 °F /  20.1 °C 64.4 °F /  18 °C 29.8in /  1008.1hPa Calm     88% 0in /  0.0mm 74 W/m2
19:59 68 °F /  20 °C 64.4 °F /  18 °C 29.8in /  1008.1hPa Calm     88% 0in /  0.0mm 67 W/m2
20:05 67.8 °F /  19.9 °C 64.2 °F /  17.9 °C 29.8in /  1008.1hPa WNW 0.9mph /  1.4km/h 2mph /  3.2km/h 88% 0in /  0.0mm 56 W/m2
20:10 67.6 °F /  19.8 °C 64 °F /  17.8 °C 29.8in /  1008.5hPa WNW 2mph /  3.2km/h 2mph /  3.2km/h 88% 0in /  0.0mm 60 W/m2
20:15 67.3 °F /  19.6 °C 63.9 °F /  17.7 °C 29.8in /  1008.5hPa Calm   1mph /  1.6km/h 89% 0in /  0.0mm 69 W/m2
20:20 67.3 °F /  19.6 °C 63.9 °F /  17.7 °C 29.8in /  1008.1hPa Calm     89% 0in /  0.0mm 54 W/m2
20:25 67.1 °F /  19.5 °C 63.7 °F /  17.6 °C 29.8in /  1008.5hPa West 2mph /  3.2km/h 3mph /  4.8km/h 89% 0in /  0.0mm 39 W/m2
20:30 66.9 °F /  19.4 °C 63.3 °F /  17.4 °C 29.8in /  1008.5hPa West 0.9mph /  1.4km/h 3mph /  4.8km/h 88% 0in /  0.0mm 28 W/m2
20:35 66.7 °F /  19.3 °C 63.1 °F /  17.3 °C 29.8in /  1008.5hPa WNW 6mph /  9.7km/h 6mph /  9.7km/h 88% 0in /  0.0mm 26 W/m2
20:40 66.7 °F /  19.3 °C 63.3 °F /  17.4 °C 29.8in /  1008.5hPa West 2mph /  3.2km/h 4mph /  6.4km/h 89% 0in /  0.0mm 23 W/m2
20:45 66.6 °F /  19.2 °C 63 °F /  17.2 °C 29.8in /  1008.5hPa WNW 0.9mph /  1.4km/h 3mph /  4.8km/h 88% 0in /  0.0mm 19 W/m2
20:50 66.4 °F /  19.1 °C 62.8 °F /  17.1 °C 29.8in /  1008.5hPa West 2mph /  3.2km/h 4mph /  6.4km/h 88% 0in /  0.0mm 19 W/m2
20:55 66.4 °F /  19.1 °C 62.8 °F /  17.1 °C 29.8in /  1008.5hPa West 2.9mph /  4.7km/h 3mph /  4.8km/h 88% 0in /  0.0mm 16 W/m2
21:00 66.4 °F /  19.1 °C 63 °F /  17.2 °C 29.8in /  1008.5hPa West 2mph /  3.2km/h 2mph /  3.2km/h 89% 0in /  0.0mm 12 W/m2
21:05 66.2 °F /  19 °C 62.8 °F /  17.1 °C 29.8in /  1008.5hPa West 2mph /  3.2km/h 3mph /  4.8km/h 89% 0in /  0.0mm 12 W/m2
21:10 66 °F /  18.9 °C 62.6 °F /  17 °C 29.8in /  1008.5hPa West 0.9mph /  1.4km/h 3mph /  4.8km/h 89% 0in /  0.0mm 14 W/m2
21:15 66 °F /  18.9 °C 62.6 °F /  17 °C 29.8in /  1008.5hPa West 0.9mph /  1.4km/h 4mph /  6.4km/h 89% 0in /  0.0mm 14 W/m2
21:20 66 °F /  18.9 °C 62.6 °F /  17 °C 29.8in /  1008.5hPa West 2mph /  3.2km/h 2mph /  3.2km/h 89% 0in /  0.0mm 11 W/m2
21:25 65.8 °F /  18.8 °C 62.4 °F /  16.9 °C 29.8in /  1008.5hPa West 2mph /  3.2km/h 7mph /  11.3km/h 89% 0in /  0.0mm 12 W/m2
21:30 66 °F /  18.9 °C 62.6 °F /  17 °C 29.8in /  1008.5hPa WSW 0.9mph /  1.4km/h 4mph /  6.4km/h 89% 0in /  0.0mm 16 W/m2
21:35 66 °F /  18.9 °C 62.6 °F /  17 °C 29.8in /  1008.5hPa West 0.9mph /  1.4km/h 7mph /  11.3km/h 89% 0in /  0.0mm 14 W/m2
21:40 66 °F /  18.9 °C 62.6 °F /  17 °C 29.8in /  1008.5hPa WSW 0.9mph /  1.4km/h 3mph /  4.8km/h 89% 0in /  0.0mm 7 W/m2
21:45 66 °F /  18.9 °C 62.6 °F /  17 °C 29.8in /  1008.5hPa West 0.9mph /  1.4km/h 5mph /  8km/h 89% 0in /  0.0mm 0 W/m2
21:50 65.8 °F /  18.8 °C 62.4 °F /  16.9 °C 29.8in /  1008.5hPa West 0.9mph /  1.4km/h 1mph /  1.6km/h 89% 0in /  0.0mm 0 W/m2
21:55 65.8 °F /  18.8 °C 62.4 °F /  16.9 °C 29.8in /  1008.8hPa Calm   1mph /  1.6km/h 89% 0in /  0.0mm 0 W/m2
22:00 65.8 °F /  18.8 °C 62.4 °F /  16.9 °C 29.8in /  1008.8hPa Calm     89% 0in /  0.0mm 0 W/m2
22:05 65.7 °F /  18.7 °C 62.6 °F /  17 °C 29.8in /  1008.8hPa WSW 0.9mph /  1.4km/h 2mph /  3.2km/h 90% 0in /  0.0mm 0 W/m2
22:10 65.7 °F /  18.7 °C 62.6 °F /  17 °C 29.8in /  1008.8hPa West 2mph /  3.2km/h 4mph /  6.4km/h 90% 0in /  0.0mm 0 W/m2
22:15 65.5 °F /  18.6 °C 62.4 °F /  16.9 °C 29.8in /  1008.8hPa SW 0.9mph /  1.4km/h 3mph /  4.8km/h 90% 0in /  0.0mm 0 W/m2
22:20 65.5 °F /  18.6 °C 62.4 °F /  16.9 °C 29.8in /  1008.8hPa WNW 2mph /  3.2km/h 3mph /  4.8km/h 90% 0in /  0.0mm 0 W/m2
22:25 65.3 °F /  18.5 °C 62.2 °F /  16.8 °C 29.8in /  1008.8hPa Calm   2mph /  3.2km/h 90% 0in /  0.0mm 0 W/m2
22:30 65.3 °F /  18.5 °C 62.1 °F /  16.7 °C 29.8in /  1008.8hPa WSW 2mph /  3.2km/h 2mph /  3.2km/h 89% 0in /  0.0mm 0 W/m2
22:35 65.1 °F /  18.4 °C 61.9 °F /  16.6 °C 29.8in /  1008.5hPa WSW 0.9mph /  1.4km/h 3mph /  4.8km/h 89% 0in /  0.0mm 0 W/m2
22:40 65.1 °F /  18.4 °C 61.9 °F /  16.6 °C 29.8in /  1008.5hPa Calm     89% 0in /  0.0mm 0 W/m2
22:45 65.1 °F /  18.4 °C 62.1 °F /  16.7 °C 29.8in /  1008.5hPa WSW 0.9mph /  1.4km/h 2mph /  3.2km/h 90% 0in /  0.0mm 0 W/m2
22:50 64.9 °F /  18.3 °C 61.9 °F /  16.6 °C 29.8in /  1008.8hPa Calm     90% 0in /  0.0mm 0 W/m2
22:55 64.8 °F /  18.2 °C 62.1 °F /  16.7 °C 29.8in /  1008.8hPa Calm     91% 0in /  0.0mm 0 W/m2
23:00 64.6 °F /  18.1 °C 61.9 °F /  16.6 °C 29.8in /  1008.8hPa Calm     91% 0in /  0.0mm 0 W/m2
23:05 64.4 °F /  18 °C 61.7 °F /  16.5 °C 29.8in /  1008.8hPa Calm     91% 0in /  0.0mm 0 W/m2
23:10 64.2 °F /  17.9 °C 61.5 °F /  16.4 °C 29.8in /  1008.8hPa Calm     91% 0in /  0.0mm 0 W/m2
23:15 64 °F /  17.8 °C 61.3 °F /  16.3 °C 29.8in /  1008.8hPa Calm   2mph /  3.2km/h 91% 0in /  0.0mm 0 W/m2
23:20 64 °F /  17.8 °C 61.3 °F /  16.3 °C 29.8in /  1008.8hPa Calm   2mph /  3.2km/h 91% 0in /  0.0mm 0 W/m2
23:25 64 °F /  17.8 °C 61.3 °F /  16.3 °C 29.8in /  1008.8hPa West 2mph /  3.2km/h 2mph /  3.2km/h 91% 0in /  0.0mm 0 W/m2
23:30 64.2 °F /  17.9 °C 61.5 °F /  16.4 °C 29.8in /  1008.8hPa Calm   2mph /  3.2km/h 91% 0in /  0.0mm 0 W/m2
23:35 64.2 °F /  17.9 °C 61.5 °F /  16.4 °C 29.8in /  1008.5hPa West 2mph /  3.2km/h 2mph /  3.2km/h 91% 0in /  0.0mm 0 W/m2
23:40 64.2 °F /  17.9 °C 61.5 °F /  16.4 °C 29.8in /  1008.8hPa West 2mph /  3.2km/h 2mph /  3.2km/h 91% 0in /  0.0mm 0 W/m2
23:45 64.2 °F /  17.9 °C 61.5 °F /  16.4 °C 29.8in /  1008.8hPa West 2mph /  3.2km/h 3mph /  4.8km/h 91% 0in /  0.0mm 0 W/m2
23:50 64.2 °F /  17.9 °C 61.2 °F /  16.2 °C 29.8in /  1008.5hPa Calm   2mph /  3.2km/h 90% 0in /  0.0mm 0 W/m2
23:55 64.2 °F /  17.9 °C 61.2 °F /  16.2 °C 29.8in /  1008.8hPa Calm     90% 0in /  0.0mm 0 W/m2
Juneau County Weather
Compliments of Weather Underground - 4 mb